sensor_id;sensor_type;location;lat;lon;timestamp;P1;durP1;ratioP1;P2;durP2;ratioP2
69951;SDS011;60406;48.408;13.392;2023-07-13T00:03:52;11.30;;;8.23;;
69951;SDS011;60406;48.408;13.392;2023-07-13T00:08:52;13.55;;;7.53;;
69951;SDS011;60406;48.408;13.392;2023-07-13T00:13:53;10.77;;;7.22;;
69951;SDS011;60406;48.408;13.392;2023-07-13T00:18:54;13.70;;;8.75;;
69951;SDS011;60406;48.408;13.392;2023-07-13T00:24:16;11.15;;;8.57;;
69951;SDS011;60406;48.408;13.392;2023-07-13T00:29:18;13.95;;;8.77;;
69951;SDS011;60406;48.408;13.392;2023-07-13T00:34:19;13.25;;;9.23;;
69951;SDS011;60406;48.408;13.392;2023-07-13T00:39:40;12.98;;;9.48;;
69951;SDS011;60406;48.408;13.392;2023-07-13T00:44:41;13.02;;;9.82;;
69951;SDS011;60406;48.408;13.392;2023-07-13T00:49:42;13.20;;;9.65;;
69951;SDS011;60406;48.408;13.392;2023-07-13T00:55:03;12.52;;;8.30;;
69951;SDS011;60406;48.408;13.392;2023-07-13T01:00:05;10.80;;;8.95;;
69951;SDS011;60406;48.408;13.392;2023-07-13T01:05:10;15.43;;;9.25;;
69951;SDS011;60406;48.408;13.392;2023-07-13T01:10:12;12.48;;;9.38;;
69951;SDS011;60406;48.408;13.392;2023-07-13T01:21:03;11.60;;;8.27;;
69951;SDS011;60406;48.408;13.392;2023-07-13T01:26:04;18.55;;;8.05;;
69951;SDS011;60406;48.408;13.392;2023-07-13T01:31:05;18.27;;;8.25;;
69951;SDS011;60406;48.408;13.392;2023-07-13T01:36:07;12.98;;;7.68;;
69951;SDS011;60406;48.408;13.392;2023-07-13T01:41:08;11.93;;;8.32;;
69951;SDS011;60406;48.408;13.392;2023-07-13T01:46:09;11.93;;;9.70;;
69951;SDS011;60406;48.408;13.392;2023-07-13T01:51:10;17.48;;;10.18;;
69951;SDS011;60406;48.408;13.392;2023-07-13T01:56:11;13.15;;;9.75;;
69951;SDS011;60406;48.408;13.392;2023-07-13T02:01:12;13.65;;;10.98;;
69951;SDS011;60406;48.408;13.392;2023-07-13T02:06:33;17.05;;;10.88;;
69951;SDS011;60406;48.408;13.392;2023-07-13T02:11:34;13.07;;;9.57;;
69951;SDS011;60406;48.408;13.392;2023-07-13T02:16:34;10.85;;;9.75;;
69951;SDS011;60406;48.408;13.392;2023-07-13T02:21:56;14.05;;;9.18;;
69951;SDS011;60406;48.408;13.392;2023-07-13T02:26:56;15.27;;;9.77;;
69951;SDS011;60406;48.408;13.392;2023-07-13T02:31:57;12.00;;;10.02;;
69951;SDS011;60406;48.408;13.392;2023-07-13T02:37:19;16.75;;;10.43;;
69951;SDS011;60406;48.408;13.392;2023-07-13T02:42:20;14.75;;;10.68;;
69951;SDS011;60406;48.408;13.392;2023-07-13T02:47:21;15.27;;;10.00;;
69951;SDS011;60406;48.408;13.392;2023-07-13T02:52:21;12.82;;;10.05;;
69951;SDS011;60406;48.408;13.392;2023-07-13T02:57:22;12.43;;;10.48;;
69951;SDS011;60406;48.408;13.392;2023-07-13T03:02:23;13.27;;;10.68;;
69951;SDS011;60406;48.408;13.392;2023-07-13T03:07:24;11.57;;;10.18;;
69951;SDS011;60406;48.408;13.392;2023-07-13T03:12:25;12.00;;;10.50;;
69951;SDS011;60406;48.408;13.392;2023-07-13T03:17:26;15.90;;;11.45;;
69951;SDS011;60406;48.408;13.392;2023-07-13T03:22:27;11.63;;;9.55;;
69951;SDS011;60406;48.408;13.392;2023-07-13T03:27:28;14.48;;;9.88;;
69951;SDS011;60406;48.408;13.392;2023-07-13T03:32:29;15.68;;;10.10;;
69951;SDS011;60406;48.408;13.392;2023-07-13T03:37:30;16.50;;;10.32;;
69951;SDS011;60406;48.408;13.392;2023-07-13T03:42:51;11.70;;;8.93;;
69951;SDS011;60406;48.408;13.392;2023-07-13T03:47:52;10.55;;;9.43;;
69951;SDS011;60406;48.408;13.392;2023-07-13T03:52:53;10.65;;;9.55;;
69951;SDS011;60406;48.408;13.392;2023-07-13T03:58:30;12.65;;;7.93;;
69951;SDS011;60406;48.408;13.392;2023-07-13T04:03:53;9.15;;;7.32;;
69951;SDS011;60406;48.408;13.392;2023-07-13T04:08:55;13.70;;;8.43;;
69951;SDS011;60406;48.408;13.392;2023-07-13T04:18:58;7.32;;;5.93;;
69951;SDS011;60406;48.408;13.392;2023-07-13T04:23:59;13.63;;;6.60;;
69951;SDS011;60406;48.408;13.392;2023-07-13T04:29:00;7.35;;;6.35;;
69951;SDS011;60406;48.408;13.392;2023-07-13T04:34:21;7.07;;;4.40;;
69951;SDS011;60406;48.408;13.392;2023-07-13T04:39:22;6.22;;;3.88;;
69951;SDS011;60406;48.408;13.392;2023-07-13T04:44:23;4.43;;;3.85;;
69951;SDS011;60406;48.408;13.392;2023-07-13T04:49:44;5.22;;;3.60;;
69951;SDS011;60406;48.408;13.392;2023-07-13T04:54:45;7.35;;;3.78;;
69951;SDS011;60406;48.408;13.392;2023-07-13T04:59:46;6.85;;;3.50;;
69951;SDS011;60406;48.408;13.392;2023-07-13T05:05:07;6.00;;;3.72;;
69951;SDS011;60406;48.408;13.392;2023-07-13T05:10:08;5.13;;;4.15;;
69951;SDS011;60406;48.408;13.392;2023-07-13T05:15:10;6.82;;;4.18;;
69951;SDS011;60406;48.408;13.392;2023-07-13T05:20:11;9.23;;;4.20;;
69951;SDS011;60406;48.408;13.392;2023-07-13T05:25:12;7.25;;;3.85;;
69951;SDS011;60406;48.408;13.392;2023-07-13T05:30:13;5.88;;;4.00;;
69951;SDS011;60406;48.408;13.392;2023-07-13T05:35:14;6.60;;;3.55;;
69951;SDS011;60406;48.408;13.392;2023-07-13T05:40:15;10.27;;;4.13;;
69951;SDS011;60406;48.408;13.392;2023-07-13T05:45:16;7.43;;;4.28;;
69951;SDS011;60406;48.408;13.392;2023-07-13T05:50:16;5.43;;;3.47;;
69951;SDS011;60406;48.408;13.392;2023-07-13T05:55:17;5.85;;;3.90;;
69951;SDS011;60406;48.408;13.392;2023-07-13T06:00:19;5.53;;;4.03;;
69951;SDS011;60406;48.408;13.392;2023-07-13T06:05:20;7.35;;;4.30;;
69951;SDS011;60406;48.408;13.392;2023-07-13T06:10:21;10.82;;;4.32;;
69951;SDS011;60406;48.408;13.392;2023-07-13T06:15:22;5.30;;;4.80;;
69951;SDS011;60406;48.408;13.392;2023-07-13T06:20:23;6.00;;;4.85;;
69951;SDS011;60406;48.408;13.392;2023-07-13T06:25:44;6.47;;;5.60;;
69951;SDS011;60406;48.408;13.392;2023-07-13T06:30:45;6.97;;;5.28;;
69951;SDS011;60406;48.408;13.392;2023-07-13T06:35:46;9.60;;;5.47;;
69951;SDS011;60406;48.408;13.392;2023-07-13T06:41:07;9.30;;;5.18;;
69951;SDS011;60406;48.408;13.392;2023-07-13T06:46:08;6.40;;;5.80;;
69951;SDS011;60406;48.408;13.392;2023-07-13T06:51:10;6.78;;;4.97;;
69951;SDS011;60406;48.408;13.392;2023-07-13T06:56:31;9.10;;;6.05;;
69951;SDS011;60406;48.408;13.392;2023-07-13T07:01:32;7.35;;;5.75;;
69951;SDS011;60406;48.408;13.392;2023-07-13T07:06:33;7.00;;;5.60;;
69951;SDS011;60406;48.408;13.392;2023-07-13T07:11:34;8.43;;;5.35;;
69951;SDS011;60406;48.408;13.392;2023-07-13T07:16:34;7.32;;;5.22;;
69951;SDS011;60406;48.408;13.392;2023-07-13T07:21:35;7.60;;;5.30;;
69951;SDS011;60406;48.408;13.392;2023-07-13T07:26:36;6.80;;;5.60;;
69951;SDS011;60406;48.408;13.392;2023-07-13T07:31:37;9.13;;;5.60;;
69951;SDS011;60406;48.408;13.392;2023-07-13T07:36:38;7.38;;;4.78;;
69951;SDS011;60406;48.408;13.392;2023-07-13T07:41:39;9.10;;;5.38;;
69951;SDS011;60406;48.408;13.392;2023-07-13T07:47:00;12.10;;;5.57;;
69951;SDS011;60406;48.408;13.392;2023-07-13T07:52:01;11.75;;;5.03;;
69951;SDS011;60406;48.408;13.392;2023-07-13T07:57:02;10.40;;;5.05;;
69951;SDS011;60406;48.408;13.392;2023-07-13T08:02:24;7.28;;;4.50;;
69951;SDS011;60406;48.408;13.392;2023-07-13T08:07:25;9.20;;;5.18;;
69951;SDS011;60406;48.408;13.392;2023-07-13T08:12:26;5.20;;;4.28;;
69951;SDS011;60406;48.408;13.392;2023-07-13T08:17:48;8.95;;;5.40;;
69951;SDS011;60406;48.408;13.392;2023-07-13T08:22:49;5.85;;;4.30;;
69951;SDS011;60406;48.408;13.392;2023-07-13T08:27:49;5.10;;;4.63;;
69951;SDS011;60406;48.408;13.392;2023-07-13T08:33:11;7.72;;;4.88;;
69951;SDS011;60406;48.408;13.392;2023-07-13T08:38:11;7.95;;;4.63;;
69951;SDS011;60406;48.408;13.392;2023-07-13T08:43:14;8.32;;;4.47;;
69951;SDS011;60406;48.408;13.392;2023-07-13T08:48:45;7.63;;;4.55;;
69951;SDS011;60406;48.408;13.392;2023-07-13T08:53:48;14.75;;;4.45;;
69951;SDS011;60406;48.408;13.392;2023-07-13T09:04:09;9.13;;;4.40;;
69951;SDS011;60406;48.408;13.392;2023-07-13T09:15:24;5.38;;;3.92;;
69951;SDS011;60406;48.408;13.392;2023-07-13T09:20:52;6.20;;;3.85;;
69951;SDS011;60406;48.408;13.392;2023-07-13T09:26:20;8.07;;;3.78;;
69951;SDS011;60406;48.408;13.392;2023-07-13T09:31:45;8.02;;;3.72;;
69951;SDS011;60406;48.408;13.392;2023-07-13T09:36:50;6.97;;;4.05;;
69951;SDS011;60406;48.408;13.392;2023-07-13T09:47:19;5.05;;;3.33;;
69951;SDS011;60406;48.408;13.392;2023-07-13T09:57:46;9.65;;;3.58;;
69951;SDS011;60406;48.408;13.392;2023-07-13T10:02:49;5.78;;;3.72;;
69951;SDS011;60406;48.408;13.392;2023-07-13T10:07:58;8.25;;;3.85;;
69951;SDS011;60406;48.408;13.392;2023-07-13T10:12:59;5.85;;;3.15;;
69951;SDS011;60406;48.408;13.392;2023-07-13T10:18:00;5.72;;;3.35;;
69951;SDS011;60406;48.408;13.392;2023-07-13T10:23:02;3.28;;;2.88;;
69951;SDS011;60406;48.408;13.392;2023-07-13T10:28:33;4.03;;;3.20;;
69951;SDS011;60406;48.408;13.392;2023-07-13T10:33:36;4.88;;;3.17;;
69951;SDS011;60406;48.408;13.392;2023-07-13T10:38:58;5.05;;;3.38;;
69951;SDS011;60406;48.408;13.392;2023-07-13T10:44:00;10.00;;;3.70;;
69951;SDS011;60406;48.408;13.392;2023-07-13T10:49:02;7.55;;;3.55;;
69951;SDS011;60406;48.408;13.392;2023-07-13T10:54:14;5.72;;;3.17;;
69951;SDS011;60406;48.408;13.392;2023-07-13T10:59:36;4.57;;;3.70;;
69951;SDS011;60406;48.408;13.392;2023-07-13T11:04:41;5.72;;;3.40;;
69951;SDS011;60406;48.408;13.392;2023-07-13T11:09:44;6.05;;;3.17;;
69951;SDS011;60406;48.408;13.392;2023-07-13T11:30:25;6.10;;;3.33;;
69951;SDS011;60406;48.408;13.392;2023-07-13T11:35:36;4.82;;;3.53;;
69951;SDS011;60406;48.408;13.392;2023-07-13T11:40:58;6.07;;;3.13;;
69951;SDS011;60406;48.408;13.392;2023-07-13T11:46:13;4.10;;;3.17;;
69951;SDS011;60406;48.408;13.392;2023-07-13T11:51:17;6.25;;;3.10;;
69951;SDS011;60406;48.408;13.392;2023-07-13T11:56:30;6.82;;;2.95;;
69951;SDS011;60406;48.408;13.392;2023-07-13T12:01:32;7.10;;;2.97;;
69951;SDS011;60406;48.408;13.392;2023-07-13T12:06:57;7.40;;;3.58;;
69951;SDS011;60406;48.408;13.392;2023-07-13T12:12:29;4.95;;;2.83;;
69951;SDS011;60406;48.408;13.392;2023-07-13T12:17:30;3.83;;;3.10;;
69951;SDS011;60406;48.408;13.392;2023-07-13T12:22:30;3.92;;;2.60;;
69951;SDS011;60406;48.408;13.392;2023-07-13T12:27:52;6.55;;;2.78;;
69951;SDS011;60406;48.408;13.392;2023-07-13T12:33:11;5.15;;;2.55;;
69951;SDS011;60406;48.408;13.392;2023-07-13T12:38:12;4.35;;;2.60;;
69951;SDS011;60406;48.408;13.392;2023-07-13T12:43:14;7.30;;;2.50;;
69951;SDS011;60406;48.408;13.392;2023-07-13T12:48:16;2.45;;;2.25;;
69951;SDS011;60406;48.408;13.392;2023-07-13T12:53:28;3.07;;;2.30;;
69951;SDS011;60406;48.408;13.392;2023-07-13T12:58:48;4.53;;;2.00;;
69951;SDS011;60406;48.408;13.392;2023-07-13T13:03:50;3.83;;;1.80;;
69951;SDS011;60406;48.408;13.392;2023-07-13T13:14:13;3.70;;;1.70;;
69951;SDS011;60406;48.408;13.392;2023-07-13T13:24:16;4.18;;;2.00;;
69951;SDS011;60406;48.408;13.392;2023-07-13T13:29:22;4.70;;;1.90;;
69951;SDS011;60406;48.408;13.392;2023-07-13T13:34:24;7.40;;;1.88;;
69951;SDS011;60406;48.408;13.392;2023-07-13T13:39:26;3.92;;;2.15;;
69951;SDS011;60406;48.408;13.392;2023-07-13T13:44:30;5.55;;;2.38;;
69951;SDS011;60406;48.408;13.392;2023-07-13T13:49:51;3.03;;;1.98;;
69951;SDS011;60406;48.408;13.392;2023-07-13T13:54:52;5.07;;;2.17;;
69951;SDS011;60406;48.408;13.392;2023-07-13T13:59:53;6.45;;;2.30;;
69951;SDS011;60406;48.408;13.392;2023-07-13T14:05:15;4.95;;;2.00;;
69951;SDS011;60406;48.408;13.392;2023-07-13T14:10:19;3.28;;;1.58;;
69951;SDS011;60406;48.408;13.392;2023-07-13T14:15:21;3.57;;;1.90;;
69951;SDS011;60406;48.408;13.392;2023-07-13T14:20:31;3.25;;;2.00;;
69951;SDS011;60406;48.408;13.392;2023-07-13T14:25:32;3.83;;;1.83;;
69951;SDS011;60406;48.408;13.392;2023-07-13T14:30:33;2.53;;;1.80;;
69951;SDS011;60406;48.408;13.392;2023-07-13T14:35:34;5.43;;;1.80;;
69951;SDS011;60406;48.408;13.392;2023-07-13T14:40:35;3.42;;;1.75;;
69951;SDS011;60406;48.408;13.392;2023-07-13T14:45:36;3.97;;;1.52;;
69951;SDS011;60406;48.408;13.392;2023-07-13T14:50:39;2.90;;;1.50;;
69951;SDS011;60406;48.408;13.392;2023-07-13T14:55:40;2.95;;;1.42;;
69951;SDS011;60406;48.408;13.392;2023-07-13T15:00:41;2.50;;;1.65;;
69951;SDS011;60406;48.408;13.392;2023-07-13T15:05:42;2.30;;;2.10;;
69951;SDS011;60406;48.408;13.392;2023-07-13T15:10:42;4.03;;;1.90;;
69951;SDS011;60406;48.408;13.392;2023-07-13T15:15:45;3.03;;;1.77;;
69951;SDS011;60406;48.408;13.392;2023-07-13T15:20:49;2.33;;;1.80;;
69951;SDS011;60406;48.408;13.392;2023-07-13T15:25:51;2.70;;;1.95;;
69951;SDS011;60406;48.408;13.392;2023-07-13T15:30:52;4.65;;;1.90;;
69951;SDS011;60406;48.408;13.392;2023-07-13T15:35:53;5.38;;;1.60;;
69951;SDS011;60406;48.408;13.392;2023-07-13T15:41:18;3.38;;;2.00;;
69951;SDS011;60406;48.408;13.392;2023-07-13T15:46:23;4.72;;;1.90;;
69951;SDS011;60406;48.408;13.392;2023-07-13T15:51:45;4.35;;;1.85;;
69951;SDS011;60406;48.408;13.392;2023-07-13T15:56:49;4.40;;;2.10;;
69951;SDS011;60406;48.408;13.392;2023-07-13T16:02:16;3.28;;;2.05;;
69951;SDS011;60406;48.408;13.392;2023-07-13T16:07:18;5.18;;;1.92;;
69951;SDS011;60406;48.408;13.392;2023-07-13T16:12:19;2.08;;;1.83;;
69951;SDS011;60406;48.408;13.392;2023-07-13T16:17:40;5.55;;;2.10;;
69951;SDS011;60406;48.408;13.392;2023-07-13T16:22:46;3.83;;;2.28;;
69951;SDS011;60406;48.408;13.392;2023-07-13T16:28:09;3.80;;;2.10;;
69951;SDS011;60406;48.408;13.392;2023-07-13T16:33:10;2.35;;;1.88;;
69951;SDS011;60406;48.408;13.392;2023-07-13T16:38:19;2.75;;;2.10;;
69951;SDS011;60406;48.408;13.392;2023-07-13T16:43:21;3.85;;;1.80;;
69951;SDS011;60406;48.408;13.392;2023-07-13T16:48:22;5.57;;;2.20;;
69951;SDS011;60406;48.408;13.392;2023-07-13T16:53:44;6.35;;;2.58;;
69951;SDS011;60406;48.408;13.392;2023-07-13T16:58:45;7.40;;;5.22;;
69951;SDS011;60406;48.408;13.392;2023-07-13T17:03:46;6.10;;;3.20;;
69951;SDS011;60406;48.408;13.392;2023-07-13T17:09:10;5.15;;;2.63;;
69951;SDS011;60406;48.408;13.392;2023-07-13T17:14:12;4.10;;;2.50;;
69951;SDS011;60406;48.408;13.392;2023-07-13T17:19:17;4.85;;;2.78;;
69951;SDS011;60406;48.408;13.392;2023-07-13T17:24:19;5.53;;;2.15;;
69951;SDS011;60406;48.408;13.392;2023-07-13T17:29:21;3.03;;;2.00;;
69951;SDS011;60406;48.408;13.392;2023-07-13T17:34:42;2.90;;;1.88;;
69951;SDS011;60406;48.408;13.392;2023-07-13T17:39:44;2.17;;;1.75;;
69951;SDS011;60406;48.408;13.392;2023-07-13T17:44:45;9.57;;;1.85;;
69951;SDS011;60406;48.408;13.392;2023-07-13T17:50:10;5.93;;;2.08;;
69951;SDS011;60406;48.408;13.392;2023-07-13T17:55:13;5.88;;;1.98;;
69951;SDS011;60406;48.408;13.392;2023-07-13T18:00:38;4.80;;;2.20;;
69951;SDS011;60406;48.408;13.392;2023-07-13T18:05:40;2.75;;;1.88;;
69951;SDS011;60406;48.408;13.392;2023-07-13T18:10:42;4.07;;;2.17;;
69951;SDS011;60406;48.408;13.392;2023-07-13T18:16:03;3.33;;;1.80;;
69951;SDS011;60406;48.408;13.392;2023-07-13T18:21:04;4.97;;;2.25;;
69951;SDS011;60406;48.408;13.392;2023-07-13T18:26:08;3.70;;;2.70;;
69951;SDS011;60406;48.408;13.392;2023-07-13T18:31:11;7.10;;;2.97;;
69951;SDS011;60406;48.408;13.392;2023-07-13T18:36:14;3.45;;;2.50;;
69951;SDS011;60406;48.408;13.392;2023-07-13T18:41:35;3.50;;;2.60;;
69951;SDS011;60406;48.408;13.392;2023-07-13T18:46:36;5.88;;;2.28;;
69951;SDS011;60406;48.408;13.392;2023-07-13T18:51:37;4.28;;;2.88;;
69951;SDS011;60406;48.408;13.392;2023-07-13T18:56:38;10.55;;;3.17;;
69951;SDS011;60406;48.408;13.392;2023-07-13T19:01:43;4.18;;;2.63;;
69951;SDS011;60406;48.408;13.392;2023-07-13T19:06:44;3.05;;;2.35;;
69951;SDS011;60406;48.408;13.392;2023-07-13T19:12:15;5.10;;;3.58;;
69951;SDS011;60406;48.408;13.392;2023-07-13T19:17:40;7.00;;;3.13;;
69951;SDS011;60406;48.408;13.392;2023-07-13T19:22:41;8.35;;;4.32;;
69951;SDS011;60406;48.408;13.392;2023-07-13T19:27:42;7.13;;;3.83;;
69951;SDS011;60406;48.408;13.392;2023-07-13T19:32:43;6.13;;;3.70;;
69951;SDS011;60406;48.408;13.392;2023-07-13T19:37:45;7.32;;;4.28;;
69951;SDS011;60406;48.408;13.392;2023-07-13T19:42:46;3.80;;;2.67;;
69951;SDS011;60406;48.408;13.392;2023-07-13T19:47:47;5.63;;;4.30;;
69951;SDS011;60406;48.408;13.392;2023-07-13T19:52:49;6.07;;;2.72;;
69951;SDS011;60406;48.408;13.392;2023-07-13T19:57:51;3.20;;;2.70;;
69951;SDS011;60406;48.408;13.392;2023-07-13T20:03:12;3.75;;;2.88;;
69951;SDS011;60406;48.408;13.392;2023-07-13T20:08:17;5.63;;;2.95;;
69951;SDS011;60406;48.408;13.392;2023-07-13T20:13:19;3.08;;;2.78;;
69951;SDS011;60406;48.408;13.392;2023-07-13T20:18:19;5.68;;;2.90;;
69951;SDS011;60406;48.408;13.392;2023-07-13T20:23:21;4.15;;;2.63;;
69951;SDS011;60406;48.408;13.392;2023-07-13T20:28:22;3.30;;;3.00;;
69951;SDS011;60406;48.408;13.392;2023-07-13T20:33:23;7.57;;;3.50;;
69951;SDS011;60406;48.408;13.392;2023-07-13T20:38:25;4.75;;;2.75;;
69951;SDS011;60406;48.408;13.392;2023-07-13T20:43:26;4.65;;;2.92;;
69951;SDS011;60406;48.408;13.392;2023-07-13T20:53:30;8.18;;;3.05;;
69951;SDS011;60406;48.408;13.392;2023-07-13T20:58:30;4.82;;;3.20;;
69951;SDS011;60406;48.408;13.392;2023-07-13T21:03:31;4.32;;;3.22;;
69951;SDS011;60406;48.408;13.392;2023-07-13T21:08:32;4.60;;;3.65;;
69951;SDS011;60406;48.408;13.392;2023-07-13T21:13:33;5.13;;;3.13;;
69951;SDS011;60406;48.408;13.392;2023-07-13T21:18:36;3.90;;;3.25;;
69951;SDS011;60406;48.408;13.392;2023-07-13T21:23:37;4.50;;;3.03;;
69951;SDS011;60406;48.408;13.392;2023-07-13T21:28:40;8.18;;;3.30;;
69951;SDS011;60406;48.408;13.392;2023-07-13T21:33:42;5.80;;;3.45;;
69951;SDS011;60406;48.408;13.392;2023-07-13T21:38:42;7.15;;;3.58;;
69951;SDS011;60406;48.408;13.392;2023-07-13T21:44:25;8.35;;;3.78;;
69951;SDS011;60406;48.408;13.392;2023-07-13T21:49:27;4.53;;;4.03;;
69951;SDS011;60406;48.408;13.392;2023-07-13T21:54:28;6.05;;;4.40;;
69951;SDS011;60406;48.408;13.392;2023-07-13T21:59:29;5.70;;;4.70;;
69951;SDS011;60406;48.408;13.392;2023-07-13T22:04:30;6.45;;;4.28;;
69951;SDS011;60406;48.408;13.392;2023-07-13T22:09:31;7.30;;;4.50;;
69951;SDS011;60406;48.408;13.392;2023-07-13T22:14:31;7.95;;;5.35;;
69951;SDS011;60406;48.408;13.392;2023-07-13T22:19:32;4.55;;;4.15;;
69951;SDS011;60406;48.408;13.392;2023-07-13T22:24:33;5.18;;;4.68;;
69951;SDS011;60406;48.408;13.392;2023-07-13T22:29:34;6.50;;;5.25;;
69951;SDS011;60406;48.408;13.392;2023-07-13T22:34:35;6.00;;;4.72;;
69951;SDS011;60406;48.408;13.392;2023-07-13T22:39:36;10.50;;;5.38;;
69951;SDS011;60406;48.408;13.392;2023-07-13T22:44:37;6.00;;;4.82;;
69951;SDS011;60406;48.408;13.392;2023-07-13T22:49:38;6.68;;;4.97;;
69951;SDS011;60406;48.408;13.392;2023-07-13T22:54:39;8.10;;;5.38;;
69951;SDS011;60406;48.408;13.392;2023-07-13T22:59:39;10.35;;;5.05;;
69951;SDS011;60406;48.408;13.392;2023-07-13T23:05:01;8.38;;;4.75;;
69951;SDS011;60406;48.408;13.392;2023-07-13T23:10:08;6.45;;;4.85;;
69951;SDS011;60406;48.408;13.392;2023-07-13T23:15:13;5.88;;;5.00;;
69951;SDS011;60406;48.408;13.392;2023-07-13T23:20:21;8.73;;;4.93;;
69951;SDS011;60406;48.408;13.392;2023-07-13T23:25:24;9.27;;;5.50;;
69951;SDS011;60406;48.408;13.392;2023-07-13T23:30:27;6.75;;;4.55;;
69951;SDS011;60406;48.408;13.392;2023-07-13T23:35:50;5.90;;;5.30;;
69951;SDS011;60406;48.408;13.392;2023-07-13T23:40:51;8.20;;;5.60;;
69951;SDS011;60406;48.408;13.392;2023-07-13T23:45:52;7.75;;;4.97;;
69951;SDS011;60406;48.408;13.392;2023-07-13T23:51:13;8.65;;;6.13;;
69951;SDS011;60406;48.408;13.392;2023-07-13T23:56:18;6.85;;;5.88;;
